Time;durP1;ratioP1;P1;durP2;ratioP2;P2;SDS_P1;SDS_P2;PMS_P1;PMS_P2;Temp;Humidity;BMP_temperature;BMP_pressure;BME280_temperature;BME280_humidity;BME280_pressure;Samples;Min_cycle;Max_cycle;Signal;HPM_P1;HPM_P2
2022/04/12 00:01:08;;;;;;;5.78;3.20;;;3.10;99.90;;;;;;5071284;28;20409;-91
2022/04/12 00:03:37;;;;;;;8.45;4.03;;;3.10;99.90;;;;;;5369376;22;20368;-84
2022/04/12 00:06:05;;;;;;;7.97;3.78;;;3.10;99.90;;;;;;5033442;28;20507;-84
2022/04/12 00:08:32;;;;;;;6.95;3.85;;;3.10;99.90;;;;;;5033438;28;20398;-85
2022/04/12 00:11:00;;;;;;;8.98;4.53;;;3.10;99.90;;;;;;5033513;28;20383;-85
2022/04/12 00:13:28;;;;;;;9.02;4.65;;;2.90;99.90;;;;;;5050663;28;20392;-85
2022/04/12 00:15:56;;;;;;;8.53;4.40;;;3.00;99.90;;;;;;5053872;28;20395;-85
2022/04/12 00:21:10;;;;;;;9.10;5.00;;;3.00;99.90;;;;;;5054958;28;20869;-85
2022/04/12 00:23:38;;;;;;;10.25;4.93;;;3.00;99.90;;;;;;5042648;28;20918;-85
2022/04/12 00:26:06;;;;;;;8.68;5.00;;;3.00;99.90;;;;;;5073984;28;20451;-85
2022/04/12 00:28:34;;;;;;;10.18;5.35;;;2.90;99.90;;;;;;5059407;28;20380;-84
2022/04/12 00:31:02;;;;;;;10.43;5.47;;;2.90;99.90;;;;;;5053758;28;20391;-84
2022/04/12 00:33:30;;;;;;;10.68;4.90;;;2.80;99.90;;;;;;5020820;28;20383;-84
2022/04/12 00:36:00;;;;;;;10.13;5.27;;;2.80;99.90;;;;;;5073436;28;20447;-85
2022/04/12 00:38:33;;;;;;;11.23;5.25;;;2.70;99.90;;;;;;5074733;28;20480;-84
2022/04/12 00:41:01;;;;;;;9.35;5.45;;;2.70;99.90;;;;;;5056783;28;20752;-84
2022/04/12 00:43:32;;;;;;;11.50;5.10;;;2.70;99.90;;;;;;5040360;28;20536;-85
2022/04/12 00:46:02;;;;;;;9.40;5.50;;;2.60;99.90;;;;;;5053218;28;20422;-85
2022/04/12 00:48:31;;;;;;;9.93;5.32;;;2.50;99.90;;;;;;5036477;28;20504;-85
2022/04/12 00:51:00;;;;;;;10.88;5.28;;;2.50;99.90;;;;;;5039452;28;20382;-84
2022/04/12 00:53:30;;;;;;;11.77;5.88;;;2.50;99.90;;;;;;5074365;28;20420;-84
2022/04/12 00:55:59;;;;;;;12.48;5.35;;;2.50;99.90;;;;;;5068469;28;20525;-84
2022/04/12 00:58:28;;;;;;;11.52;6.07;;;2.40;99.90;;;;;;5054366;28;20890;-84
2022/04/12 01:00:56;;;;;;;11.90;5.97;;;2.40;99.90;;;;;;5062554;28;20453;-85
2022/04/12 01:03:24;;;;;;;10.23;5.78;;;2.40;99.90;;;;;;5054157;28;20836;-84
2022/04/12 01:05:53;;;;;;;11.80;5.82;;;2.40;99.90;;;;;;5053201;28;20390;-85
2022/04/12 01:08:21;;;;;;;11.68;6.25;;;2.40;99.90;;;;;;5066587;28;20958;-84
2022/04/12 01:10:49;;;;;;;11.85;6.70;;;2.40;99.90;;;;;;5055826;28;20382;-84
2022/04/12 01:13:18;;;;;;;11.27;5.90;;;2.40;99.90;;;;;;5071918;28;20834;-84
2022/04/12 01:15:46;;;;;;;13.77;6.18;;;2.40;99.90;;;;;;5073476;28;20390;-84
2022/04/12 01:18:14;;;;;;;11.20;5.43;;;2.30;99.90;;;;;;5056751;28;20383;-84
2022/04/12 01:20:42;;;;;;;11.13;5.50;;;2.30;99.90;;;;;;5072074;28;20886;-84
2022/04/12 01:23:20;;;;;;;12.25;5.90;;;2.30;99.90;;;;;;5062867;28;20937;-84
2022/04/12 01:25:48;;;;;;;11.25;4.93;;;2.30;99.90;;;;;;5044892;28;20760;-84
2022/04/12 01:28:15;;;;;;;13.10;5.50;;;2.30;99.90;;;;;;5036382;28;20384;-84
2022/04/12 01:30:43;;;;;;;11.43;4.83;;;2.30;99.90;;;;;;5052439;28;20441;-84
2022/04/12 01:33:11;;;;;;;12.27;5.03;;;2.20;99.90;;;;;;5036349;28;20470;-84
2022/04/12 01:35:39;;;;;;;9.98;4.32;;;2.10;99.90;;;;;;5052222;28;20805;-84
2022/04/12 01:38:06;;;;;;;11.32;4.60;;;2.00;99.90;;;;;;5052307;28;20388;-84
2022/04/12 01:40:34;;;;;;;12.40;4.00;;;2.00;99.90;;;;;;5053446;28;20892;-83
2022/04/12 01:43:01;;;;;;;10.93;4.20;;;2.00;99.90;;;;;;5052172;28;20400;-83
2022/04/12 01:45:29;;;;;;;9.60;4.17;;;1.90;99.90;;;;;;5052316;28;20402;-84
2022/04/12 01:47:57;;;;;;;10.82;4.30;;;2.00;99.90;;;;;;5059907;28;20382;-84
2022/04/12 01:50:25;;;;;;;9.23;3.60;;;2.10;99.90;;;;;;5057315;28;20798;-83
2022/04/12 01:52:52;;;;;;;8.45;3.38;;;2.00;99.90;;;;;;5054348;28;20847;-84
2022/04/12 01:55:20;;;;;;;9.57;3.40;;;2.00;99.90;;;;;;5070043;28;20426;-83
2022/04/12 01:57:50;;;;;;;9.27;3.45;;;2.00;99.90;;;;;;5071400;28;20389;-84
2022/04/12 02:00:18;;;;;;;10.90;3.33;;;1.90;99.90;;;;;;5051937;28;20391;-83
2022/04/12 02:02:49;;;;;;;8.80;2.25;;;1.90;99.90;;;;;;5037909;28;20388;-84
2022/04/12 02:05:17;;;;;;;8.55;2.90;;;1.90;99.90;;;;;;5032010;28;20459;-83
2022/04/12 02:07:44;;;;;;;11.88;2.40;;;1.80;99.90;;;;;;5032994;28;20481;-83
2022/04/12 02:10:13;;;;;;;9.77;2.58;;;1.70;99.90;;;;;;5041631;28;20398;-83
2022/04/12 02:12:40;;;;;;;10.10;2.88;;;1.70;99.90;;;;;;5048569;28;20393;-84
2022/04/12 02:15:08;;;;;;;9.25;2.30;;;1.80;99.90;;;;;;5033048;28;20454;-84
2022/04/12 02:17:36;;;;;;;9.75;2.25;;;1.90;99.90;;;;;;5050382;28;20396;-83
2022/04/12 02:20:04;;;;;;;9.35;2.15;;;1.80;99.90;;;;;;5048467;28;20488;-83
2022/04/12 02:22:32;;;;;;;9.65;2.45;;;1.80;99.90;;;;;;5032995;28;20389;-83
2022/04/12 02:25:00;;;;;;;8.77;2.28;;;1.80;99.90;;;;;;5044134;28;20437;-83
2022/04/12 02:27:27;;;;;;;11.98;2.40;;;1.70;99.90;;;;;;5040503;28;20405;-84
2022/04/12 02:29:55;;;;;;;9.52;2.38;;;1.70;99.90;;;;;;5032615;28;20795;-83
2022/04/12 02:32:23;;;;;;;9.07;2.13;;;1.70;99.90;;;;;;5047810;28;20468;-83
2022/04/12 02:34:50;;;;;;;8.43;2.33;;;1.70;99.90;;;;;;5029014;28;20392;-83
2022/04/12 02:37:18;;;;;;;10.95;2.78;;;1.70;99.90;;;;;;5047687;28;21049;-84
2022/04/12 02:39:46;;;;;;;10.63;2.50;;;1.70;99.90;;;;;;5047812;28;20394;-84
2022/04/12 02:42:13;;;;;;;10.43;2.05;;;1.60;99.90;;;;;;5047954;28;20389;-84
2022/04/12 02:44:41;;;;;;;8.87;2.40;;;1.60;99.90;;;;;;5047877;28;20408;-84
2022/04/12 02:47:08;;;;;;;9.02;2.30;;;1.70;99.90;;;;;;5047741;28;20485;-83
2022/04/12 02:49:36;;;;;;;9.23;2.45;;;1.60;99.90;;;;;;5032561;28;20394;-84
2022/04/12 02:52:04;;;;;;;12.32;2.60;;;1.70;99.90;;;;;;5050726;28;20442;-84
2022/04/12 02:54:31;;;;;;;10.30;2.33;;;1.80;99.90;;;;;;5050619;28;20394;-83
2022/04/12 02:56:59;;;;;;;10.93;2.30;;;1.70;99.90;;;;;;5043349;28;20497;-84
2022/04/12 02:59:27;;;;;;;9.53;2.33;;;1.60;99.90;;;;;;5056115;28;20799;-83
2022/04/12 03:01:54;;;;;;;8.18;2.33;;;1.60;99.90;;;;;;5038146;28;20394;-84
2022/04/12 03:04:22;;;;;;;10.82;2.38;;;1.60;99.90;;;;;;5040522;28;20401;-83
2022/04/12 03:06:50;;;;;;;9.93;2.13;;;1.60;99.90;;;;;;5034146;28;20387;-83
2022/04/12 03:09:18;;;;;;;8.48;2.42;;;1.50;99.90;;;;;;5050580;28;20466;-84
2022/04/12 03:11:45;;;;;;;11.20;2.33;;;1.50;99.90;;;;;;5050575;28;20383;-83
2022/04/12 03:14:13;;;;;;;11.82;2.42;;;1.50;99.90;;;;;;5051747;28;20391;-83
2022/04/12 03:16:42;;;;;;;7.97;1.98;;;1.50;99.90;;;;;;5063531;28;20473;-83
2022/04/12 03:19:10;;;;;;;11.43;2.50;;;1.40;99.90;;;;;;5050370;28;20885;-84
2022/04/12 03:21:37;;;;;;;10.35;2.30;;;1.50;99.90;;;;;;5050452;28;20774;-83
2022/04/12 03:24:05;;;;;;;12.15;2.30;;;1.40;99.90;;;;;;5060379;28;20872;-84
2022/04/12 03:26:33;;;;;;;9.25;1.90;;;1.40;99.90;;;;;;5053816;28;20382;-83
2022/04/12 03:29:01;;;;;;;9.88;2.10;;;1.40;99.90;;;;;;5070994;28;20401;-84
2022/04/12 03:31:29;;;;;;;11.45;2.47;;;1.40;99.90;;;;;;5053145;28;20391;-83
2022/04/12 03:33:57;;;;;;;10.80;2.38;;;1.40;99.90;;;;;;5063340;28;20394;-84
2022/04/12 03:36:25;;;;;;;11.10;2.13;;;1.40;99.90;;;;;;5060365;28;20396;-84
2022/04/12 03:38:52;;;;;;;9.55;2.00;;;1.40;99.90;;;;;;5050289;28;20483;-85
2022/04/12 03:41:23;;;;;;;9.68;2.33;;;1.30;99.90;;;;;;5058535;28;20426;-84
2022/04/12 03:43:51;;;;;;;9.23;2.20;;;1.40;99.90;;;;;;5058661;28;20435;-83
2022/04/12 03:46:19;;;;;;;9.50;2.10;;;1.40;99.90;;;;;;5050107;28;20463;-83
2022/04/12 03:48:47;;;;;;;10.05;2.50;;;1.40;99.90;;;;;;5051040;28;20388;-84
2022/04/12 03:51:19;;;;;;;9.18;2.13;;;1.40;99.90;;;;;;5054407;28;20472;-83
2022/04/12 03:53:47;;;;;;;13.98;2.30;;;1.30;99.90;;;;;;5040715;28;20426;-84
2022/04/12 03:56:15;;;;;;;9.90;2.40;;;1.30;99.90;;;;;;5072428;28;20436;-82
2022/04/12 03:58:43;;;;;;;11.50;2.60;;;1.40;99.90;;;;;;5056172;28;20810;-83
2022/04/12 04:01:11;;;;;;;10.73;2.20;;;1.40;99.90;;;;;;5058202;28;20396;-83
2022/04/12 04:03:39;;;;;;;10.95;2.17;;;1.40;99.90;;;;;;5066807;28;20411;-84
2022/04/12 04:06:07;;;;;;;10.25;2.38;;;1.40;99.90;;;;;;5055259;28;20394;-84
2022/04/12 04:08:35;;;;;;;9.45;2.33;;;1.40;99.90;;;;;;5037167;28;20398;-83
2022/04/12 04:11:03;;;;;;;12.18;1.98;;;1.40;99.90;;;;;;5054979;28;20383;-84
2022/04/12 04:13:36;;;;;;;8.13;1.88;;;1.30;99.90;;;;;;5060140;28;20387;-83
2022/04/12 04:16:08;;;;;;;10.25;2.20;;;1.30;99.90;;;;;;5055196;28;20859;-85
2022/04/12 04:18:35;;;;;;;10.52;2.00;;;1.40;99.90;;;;;;5042226;28;20487;-84
2022/04/12 04:21:04;;;;;;;6.93;1.88;;;1.40;99.90;;;;;;5053779;28;20582;-84
2022/04/12 04:23:31;;;;;;;10.30;2.60;;;1.40;99.90;;;;;;5037990;28;20470;-84
2022/04/12 04:25:59;;;;;;;9.15;2.17;;;1.40;99.90;;;;;;5063538;28;20468;-83
2022/04/12 04:28:29;;;;;;;9.15;2.17;;;1.40;99.90;;;;;;5050536;28;20402;-84
2022/04/12 04:30:57;;;;;;;11.38;2.22;;;1.30;99.90;;;;;;5054771;28;20479;-83
2022/04/12 04:33:25;;;;;;;7.85;2.10;;;1.30;99.90;;;;;;5068376;28;20379;-83
2022/04/12 04:35:53;;;;;;;9.30;2.30;;;1.40;99.90;;;;;;5056763;28;20382;-83
2022/04/12 04:38:21;;;;;;;6.45;2.15;;;1.30;99.90;;;;;;5056567;28;20397;-83
2022/04/12 04:40:49;;;;;;;7.47;1.90;;;1.40;99.90;;;;;;5072948;28;20883;-83
2022/04/12 04:43:17;;;;;;;6.40;2.10;;;1.40;99.90;;;;;;5056322;28;20485;-84
2022/04/12 04:45:44;;;;;;;8.05;2.25;;;1.40;99.90;;;;;;5053012;28;20418;-83
2022/04/12 04:48:13;;;;;;;7.85;2.20;;;1.50;99.90;;;;;;5044492;28;20753;-84
2022/04/12 04:50:41;;;;;;;12.05;4.78;;;1.50;99.90;;;;;;5053079;28;20945;-83
2022/04/12 04:53:11;;;;;;;7.38;1.60;;;1.50;99.90;;;;;;5052455;28;20384;-83
2022/04/12 04:55:44;;;;;;;6.40;1.90;;;1.50;99.90;;;;;;5040113;28;20424;-83
2022/04/12 04:58:11;;;;;;;6.83;2.00;;;1.50;99.90;;;;;;5039874;28;20390;-84
2022/04/12 05:00:39;;;;;;;6.05;1.98;;;1.50;99.90;;;;;;5038392;28;20401;-84
2022/04/12 05:03:07;;;;;;;8.05;2.05;;;1.60;99.90;;;;;;5073764;28;20389;-84
2022/04/12 05:05:34;;;;;;;9.48;1.67;;;1.50;99.90;;;;;;5072675;28;20876;-83
2022/04/12 05:08:02;;;;;;;7.17;1.97;;;1.50;99.90;;;;;;5056356;28;20382;-83
2022/04/12 05:10:32;;;;;;;72.70;10.63;;;1.60;99.90;;;;;;5073111;28;20383;-84
2022/04/12 05:13:01;;;;;;;8.50;1.80;;;1.70;99.90;;;;;;5073498;28;20469;-85
2022/04/12 05:15:29;;;;;;;7.35;1.85;;;1.70;99.90;;;;;;5038718;28;20395;-83
2022/04/12 05:18:03;;;;;;;11.60;3.35;;;1.70;99.90;;;;;;5052680;28;20555;-85
2022/04/12 05:20:31;;;;;;;7.57;1.67;;;1.70;99.90;;;;;;5036255;28;20398;-84
2022/04/12 05:22:58;;;;;;;8.40;2.20;;;1.80;99.90;;;;;;5049283;28;20475;-84
2022/04/12 05:25:26;;;;;;;5.30;1.70;;;1.80;99.90;;;;;;5055053;28;20836;-86
2022/04/12 05:27:54;;;;;;;6.53;1.67;;;1.80;99.90;;;;;;5056391;28;20719;-84
2022/04/12 05:30:22;;;;;;;6.95;2.20;;;1.90;99.90;;;;;;5062246;28;20877;-85
2022/04/12 05:32:50;;;;;;;6.68;2.33;;;1.90;99.90;;;;;;5053850;28;20467;-84
2022/04/12 05:35:18;;;;;;;9.10;3.13;;;1.90;99.90;;;;;;5060269;28;20401;-85
2022/04/12 05:37:48;;;;;;;7.35;1.95;;;1.90;99.90;;;;;;5055071;28;20807;-84
2022/04/12 05:40:18;;;;;;;7.95;1.63;;;2.00;99.90;;;;;;5048971;28;20395;-84
2022/04/12 05:42:47;;;;;;;7.47;1.80;;;2.00;99.90;;;;;;5056383;28;20420;-84
2022/04/12 05:45:15;;;;;;;5.43;1.50;;;2.00;99.90;;;;;;5053811;28;20916;-84
2022/04/12 05:47:45;;;;;;;5.60;1.50;;;2.00;99.90;;;;;;5058146;28;20422;-84
2022/04/12 05:50:15;;;;;;;4.95;1.60;;;2.10;99.90;;;;;;5055899;28;20378;-85
2022/04/12 05:52:43;;;;;;;6.75;1.67;;;2.10;99.90;;;;;;5039203;28;20440;-85
2022/04/12 05:55:15;;;;;;;6.15;1.50;;;2.10;99.90;;;;;;5071799;28;20448;-85
2022/04/12 05:57:57;;;;;;;5.07;1.40;;;2.20;99.90;;;;;;5072950;28;20390;-84
2022/04/12 06:00:29;;;;;;;3.92;1.30;;;2.20;99.90;;;;;;5073189;28;20393;-85
2022/04/12 06:02:58;;;;;;;4.25;1.52;;;2.30;99.90;;;;;;5055654;28;20393;-83
2022/04/12 06:05:32;;;;;;;6.18;1.80;;;2.30;99.90;;;;;;5056787;28;20401;-84
2022/04/12 06:08:00;;;;;;;4.63;1.47;;;2.40;99.90;;;;;;5050178;28;20411;-84
2022/04/12 06:10:28;;;;;;;6.65;1.40;;;2.50;99.90;;;;;;5044121;28;20388;-85
2022/04/12 06:12:59;;;;;;;5.53;1.58;;;2.50;99.90;;;;;;5060224;28;20402;-84
2022/04/12 06:15:27;;;;;;;5.53;1.50;;;2.50;99.90;;;;;;5035155;28;20399;-84
2022/04/12 06:17:55;;;;;;;4.45;1.30;;;2.50;99.90;;;;;;5063642;28;20931;-84
2022/04/12 06:20:22;;;;;;;5.20;1.40;;;2.50;99.90;;;;;;5035124;28;20801;-85
2022/04/12 06:22:50;;;;;;;5.45;1.40;;;2.50;99.90;;;;;;5018771;28;20400;-84
2022/04/12 06:25:20;;;;;;;4.10;1.30;;;2.60;99.90;;;;;;5033643;28;20430;-84
2022/04/12 06:27:52;;;;;;;5.47;1.53;;;2.60;99.90;;;;;;5051840;28;20476;-85
2022/04/12 06:30:24;;;;;;;6.70;1.55;;;2.70;99.90;;;;;;5037598;28;20420;-85
2022/04/12 06:32:54;;;;;;;5.22;1.30;;;2.80;99.90;;;;;;5018838;28;20400;-85
2022/04/12 06:35:22;;;;;;;3.28;1.10;;;2.80;99.90;;;;;;5049168;28;20404;-84
2022/04/12 06:37:53;;;;;;;3.10;1.15;;;2.90;99.90;;;;;;5026257;28;20889;-85
2022/04/12 06:40:25;;;;;;;5.30;1.40;;;3.00;99.90;;;;;;5036519;28;20398;-84
2022/04/12 06:42:53;;;;;;;3.03;1.10;;;3.10;99.90;;;;;;5031813;28;20386;-85
2022/04/12 06:45:22;;;;;;;2.95;1.02;;;3.10;99.90;;;;;;5034518;28;20411;-83
2022/04/12 06:47:58;;;;;;;4.40;1.17;;;3.20;99.90;;;;;;5037244;28;20478;-85
2022/04/12 06:50:28;;;;;;;4.93;1.08;;;3.20;99.90;;;;;;5034596;28;20816;-83
2022/04/12 06:52:57;;;;;;;4.53;1.15;;;3.30;99.90;;;;;;5050852;28;20411;-84
2022/04/12 06:55:26;;;;;;;3.10;0.90;;;3.40;99.90;;;;;;5036175;28;20438;-84
2022/04/12 06:57:54;;;;;;;3.73;0.90;;;3.30;99.90;;;;;;5038425;28;20979;-85
2022/04/12 07:00:21;;;;;;;2.40;1.00;;;3.40;99.90;;;;;;5062342;28;20967;-85
2022/04/12 07:02:49;;;;;;;5.82;1.20;;;3.60;99.90;;;;;;5037755;28;20550;-86
2022/04/12 07:05:17;;;;;;;3.00;1.15;;;3.70;99.90;;;;;;5050167;28;20411;-85
2022/04/12 07:07:45;;;;;;;4.95;1.23;;;3.60;99.90;;;;;;5050755;28;20391;-85
2022/04/12 07:10:15;;;;;;;3.28;1.00;;;3.60;99.90;;;;;;5034383;28;20404;-84
2022/04/12 07:12:44;;;;;;;2.45;1.13;;;3.80;99.90;;;;;;5051690;28;20745;-83
2022/04/12 07:15:14;;;;;;;3.30;0.85;;;3.70;99.90;;;;;;5033471;28;20389;-85
2022/04/12 07:17:42;;;;;;;3.57;0.90;;;3.70;99.90;;;;;;5032121;28;20893;-84
2022/04/12 07:20:10;;;;;;;4.10;0.93;;;3.90;99.90;;;;;;5037038;28;20484;-85
2022/04/12 07:22:38;;;;;;;2.20;0.80;;;3.90;99.90;;;;;;5060586;28;20882;-85
2022/04/12 07:25:07;;;;;;;3.30;0.85;;;4.00;99.90;;;;;;5046723;28;20905;-85
2022/04/12 07:27:36;;;;;;;3.83;0.90;;;4.00;99.90;;;;;;5047148;28;20397;-85
2022/04/12 07:30:06;;;;;;;2.20;0.82;;;4.00;99.90;;;;;;5047139;28;20480;-85
2022/04/12 07:32:33;;;;;;;2.42;0.80;;;4.00;99.90;;;;;;5030685;28;20898;-85
2022/04/12 07:35:01;;;;;;;4.88;0.90;;;4.20;99.90;;;;;;5062847;28;20404;-85
2022/04/12 07:37:29;;;;;;;3.67;1.00;;;4.10;99.90;;;;;;5047014;28;20477;-85
2022/04/12 07:39:56;;;;;;;3.70;1.47;;;4.20;99.90;;;;;;5032901;28;20476;-85
2022/04/12 07:42:24;;;;;;;5.65;1.67;;;4.40;99.90;;;;;;5030626;28;20398;-84
2022/04/12 07:44:53;;;;;;;3.75;1.63;;;4.50;99.90;;;;;;5022126;28;20433;-85
2022/04/12 07:47:22;;;;;;;5.30;1.77;;;4.60;99.90;;;;;;5041513;28;20443;-85
2022/04/12 07:49:49;;;;;;;3.60;1.70;;;4.70;99.90;;;;;;5031422;28;20433;-84
2022/04/12 07:52:17;;;;;;;4.75;1.80;;;4.80;99.90;;;;;;5064804;28;20486;-85
2022/04/12 07:54:45;;;;;;;3.65;1.70;;;4.80;99.90;;;;;;5058448;28;20458;-85
2022/04/12 07:57:13;;;;;;;5.53;1.40;;;4.90;99.90;;;;;;5045292;28;20469;-83
2022/04/12 07:59:40;;;;;;;4.35;1.60;;;5.00;99.90;;;;;;5052775;28;20402;-85
2022/04/12 08:02:08;;;;;;;5.35;1.38;;;4.90;99.90;;;;;;5032108;28;20898;-85
2022/04/12 08:04:36;;;;;;;3.40;1.10;;;5.10;99.90;;;;;;5041680;28;20457;-84
2022/04/12 08:07:04;;;;;;;3.28;1.15;;;5.10;99.90;;;;;;5051491;28;20391;-85
2022/04/12 08:09:31;;;;;;;5.40;1.70;;;5.00;99.90;;;;;;5034755;28;20384;-85
2022/04/12 08:11:59;;;;;;;5.32;1.65;;;5.10;99.90;;;;;;5059533;28;20382;-84
2022/04/12 08:14:27;;;;;;;3.35;1.15;;;5.20;99.90;;;;;;5071147;28;20640;-84
2022/04/12 08:16:54;;;;;;;4.55;1.63;;;5.40;99.90;;;;;;5051447;28;20493;-84
2022/04/12 08:19:22;;;;;;;4.10;1.40;;;5.60;99.90;;;;;;5059421;28;20881;-84
2022/04/12 08:21:50;;;;;;;4.45;1.35;;;5.50;99.90;;;;;;5044857;28;20382;-85
2022/04/12 08:24:17;;;;;;;4.75;1.10;;;5.40;99.90;;;;;;5042096;28;20391;-84
2022/04/12 08:26:45;;;;;;;4.22;1.48;;;5.40;99.90;;;;;;5052264;28;20410;-84
2022/04/12 08:29:13;;;;;;;2.70;1.07;;;5.60;99.90;;;;;;5052760;28;20472;-85
2022/04/12 08:31:41;;;;;;;2.88;1.00;;;5.60;99.90;;;;;;5051338;28;20384;-84
2022/04/12 08:34:09;;;;;;;2.60;1.00;;;5.70;99.90;;;;;;5050291;28;20822;-84
2022/04/12 08:36:37;;;;;;;2.85;1.20;;;5.60;99.90;;;;;;5053758;28;20391;-84
2022/04/12 08:39:04;;;;;;;2.05;1.05;;;5.70;99.90;;;;;;5054859;28;20418;-84
2022/04/12 08:41:34;;;;;;;2.30;1.00;;;5.80;99.90;;;;;;5053594;28;20427;-84
2022/04/12 08:44:02;;;;;;;2.50;0.80;;;5.80;99.90;;;;;;5054907;28;20395;-84
2022/04/12 08:46:29;;;;;;;2.40;1.00;;;5.90;99.90;;;;;;5054673;28;20399;-85
2022/04/12 08:48:58;;;;;;;2.78;1.20;;;6.10;99.90;;;;;;5054497;28;20450;-84
2022/04/12 08:51:27;;;;;;;2.55;0.90;;;6.20;99.90;;;;;;5054486;28;20391;-83
2022/04/12 08:53:57;;;;;;;3.15;0.98;;;6.20;99.90;;;;;;5036837;28;20491;-84
2022/04/12 08:56:26;;;;;;;2.05;0.90;;;6.10;99.90;;;;;;5036413;28;20392;-84
2022/04/12 08:58:54;;;;;;;2.40;0.90;;;6.20;99.90;;;;;;5036941;28;20388;-85
2022/04/12 09:01:43;;;;;;;2.75;0.85;;;6.40;99.90;;;;;;5039555;28;20846;-85
2022/04/12 09:04:11;;;;;;;3.55;1.08;;;6.30;99.90;;;;;;5043007;28;20391;-86
2022/04/12 09:07:08;;;;;;;2.90;0.80;;;6.50;99.90;;;;;;5050092;28;20844;-84
2022/04/12 09:09:39;;;;;;;2.53;0.80;;;6.50;99.90;;;;;;5054162;28;20415;-85
2022/04/12 09:12:14;;;;;;;1.45;0.65;;;6.60;99.90;;;;;;5053119;28;20464;-84
2022/04/12 09:14:43;;;;;;;3.53;1.03;;;6.60;99.90;;;;;;5031124;28;20380;-85
2022/04/12 09:17:12;;;;;;;2.58;0.80;;;6.70;99.90;;;;;;5071114;28;20417;-85
2022/04/12 09:19:42;;;;;;;2.30;0.80;;;6.70;99.90;;;;;;5036465;28;20407;-85
2022/04/12 09:22:11;;;;;;;2.42;0.73;;;6.60;99.90;;;;;;5036621;28;20382;-84
2022/04/12 09:24:50;;;;;;;2.13;0.70;;;6.70;99.90;;;;;;5036711;28;20539;-84
2022/04/12 09:27:20;;;;;;;2.50;1.00;;;6.60;99.90;;;;;;5054026;28;20382;-86
2022/04/12 09:29:52;;;;;;;1.88;0.73;;;6.70;99.90;;;;;;5059347;28;20390;-84
2022/04/12 09:32:23;;;;;;;3.45;0.70;;;6.80;99.90;;;;;;5073950;28;20414;-85
2022/04/12 09:34:52;;;;;;;1.33;0.70;;;6.80;99.90;;;;;;5073692;28;20378;-85
2022/04/12 09:37:24;;;;;;;1.70;0.82;;;6.90;99.90;;;;;;5052867;28;20392;-86
2022/04/12 09:40:03;;;;;;;1.65;0.60;;;7.00;99.90;;;;;;5023230;28;20458;-84
2022/04/12 09:42:42;;;;;;;3.47;0.80;;;7.00;99.90;;;;;;5073680;28;20880;-86
2022/04/12 09:45:13;;;;;;;1.52;0.70;;;6.90;99.90;;;;;;5055377;28;20424;-84
2022/04/12 09:47:42;;;;;;;3.92;0.63;;;7.00;99.90;;;;;;5035305;28;20491;-83
2022/04/12 09:50:31;;;;;;;1.27;0.60;;;7.20;99.90;;;;;;5053731;28;20415;-85
2022/04/12 09:53:01;;;;;;;1.58;0.57;;;7.20;99.90;;;;;;5052163;28;20475;-84
2022/04/12 09:55:42;;;;;;;1.25;0.50;;;7.20;99.90;;;;;;5052961;28;20606;-85
2022/04/12 09:58:14;;;;;;;3.17;0.80;;;7.40;99.90;;;;;;5053343;28;20854;-84
2022/04/12 10:00:45;;;;;;;1.65;0.60;;;7.40;99.90;;;;;;5052354;28;20395;-85
2022/04/12 10:03:15;;;;;;;2.03;0.52;;;7.40;99.90;;;;;;5053274;28;20387;-85
2022/04/12 10:05:44;;;;;;;1.40;0.50;;;7.50;99.90;;;;;;5052982;28;20404;-84
2022/04/12 10:08:13;;;;;;;0.90;0.40;;;7.50;99.90;;;;;;5063199;28;20390;-84
2022/04/12 10:10:44;;;;;;;2.47;0.50;;;7.70;99.90;;;;;;5055820;28;20385;-84
2022/04/12 10:13:14;;;;;;;1.00;0.43;;;7.60;99.90;;;;;;5055142;28;20469;-84
2022/04/12 10:15:43;;;;;;;1.67;0.60;;;7.90;99.90;;;;;;5071109;28;20417;-84
2022/04/12 10:18:15;;;;;;;0.90;0.50;;;7.80;99.90;;;;;;5062765;28;20392;-84
2022/04/12 10:20:44;;;;;;;1.83;0.50;;;7.90;99.90;;;;;;5052840;28;20414;-84
2022/04/12 10:23:22;;;;;;;0.95;0.32;;;7.80;99.90;;;;;;5051848;28;20793;-85
2022/04/12 10:25:52;;;;;;;1.00;0.40;;;7.90;99.90;;;;;;5038480;28;20414;-85
2022/04/12 10:28:21;;;;;;;1.65;0.50;;;7.90;99.90;;;;;;5051682;28;20394;-85
2022/04/12 10:30:49;;;;;;;1.95;0.50;;;8.00;99.90;;;;;;5066395;28;20402;-86
2022/04/12 10:33:26;;;;;;;1.48;0.40;;;8.10;99.90;;;;;;5054419;28;20398;-84
2022/04/12 10:35:54;;;;;;;2.83;0.70;;;8.30;99.90;;;;;;5054797;28;20390;-83
2022/04/12 10:38:24;;;;;;;2.95;0.50;;;8.10;99.90;;;;;;5053981;28;20417;-85
2022/04/12 10:40:54;;;;;;;2.22;0.50;;;8.20;99.90;;;;;;5054043;28;20418;-84
2022/04/12 10:43:29;;;;;;;1.33;0.40;;;8.20;99.90;;;;;;5034392;28;20977;-83
2022/04/12 10:45:57;;;;;;;1.63;0.40;;;8.10;99.90;;;;;;5050717;28;20919;-85
2022/04/12 10:48:28;;;;;;;0.98;0.40;;;8.20;99.90;;;;;;5043303;28;20380;-84
2022/04/12 10:50:59;;;;;;;1.55;0.50;;;8.30;99.90;;;;;;5034443;28;20445;-84
2022/04/12 10:53:36;;;;;;;1.60;0.63;;;8.50;99.90;;;;;;5038430;28;20390;-84
2022/04/12 10:56:16;;;;;;;1.80;0.70;;;8.50;99.90;;;;;;5069348;28;20948;-84
2022/04/12 10:58:45;;;;;;;2.00;0.80;;;8.90;99.90;;;;;;5060578;28;20403;-84
2022/04/12 11:01:35;;;;;;;3.20;0.80;;;8.90;99.90;;;;;;5034147;28;20753;-84
2022/04/12 11:04:04;;;;;;;1.50;0.70;;;9.00;99.90;;;;;;5056193;28;20414;-84
2022/04/12 11:06:33;;;;;;;1.75;0.50;;;9.10;99.90;;;;;;5054561;28;20894;-83
2022/04/12 11:09:06;;;;;;;1.45;0.50;;;9.20;99.90;;;;;;5052631;28;20441;-84
2022/04/12 11:11:40;;;;;;;1.98;0.60;;;9.20;99.90;;;;;;5052123;28;20471;-84
2022/04/12 11:14:32;;;;;;;1.20;0.55;;;9.30;99.90;;;;;;5048718;28;20398;-84
2022/04/12 11:17:07;;;;;;;1.52;0.63;;;9.40;99.90;;;;;;5055417;28;20476;-84
2022/04/12 11:19:50;;;;;;;1.70;0.50;;;9.40;99.90;;;;;;5050824;28;20434;-83
2022/04/12 11:22:23;;;;;;;1.85;0.90;;;9.50;99.90;;;;;;5058399;28;20921;-84
2022/04/12 11:25:13;;;;;;;2.38;0.80;;;9.40;99.90;;;;;;5053106;28;20402;-84
2022/04/12 11:27:41;;;;;;;2.03;0.70;;;9.10;99.90;;;;;;5050539;28;20444;-83
2022/04/12 11:30:13;;;;;;;2.20;0.88;;;9.30;99.90;;;;;;5051928;28;20391;-84
2022/04/12 11:32:43;;;;;;;2.57;0.73;;;9.30;99.90;;;;;;5052045;28;20924;-85
2022/04/12 11:35:11;;;;;;;3.47;0.70;;;9.50;99.90;;;;;;5051917;28;20438;-84
2022/04/12 11:37:40;;;;;;;1.80;0.80;;;9.60;99.90;;;;;;5051922;28;20408;-85
2022/04/12 11:40:08;;;;;;;2.10;0.80;;;9.70;99.90;;;;;;5051779;28;20483;-83
2022/04/12 11:42:36;;;;;;;1.70;0.70;;;9.60;99.90;;;;;;5055819;28;20387;-84
2022/04/12 11:45:04;;;;;;;1.52;0.77;;;9.50;99.90;;;;;;5051656;28;20762;-84
2022/04/12 11:47:38;;;;;;;1.85;0.80;;;9.60;99.90;;;;;;5051763;28;20900;-84
2022/04/12 11:50:17;;;;;;;1.60;0.70;;;9.70;99.90;;;;;;5051698;28;20388;-84
2022/04/12 11:52:45;;;;;;;2.38;0.60;;;9.90;99.90;;;;;;5051642;28;20384;-85
2022/04/12 11:55:13;;;;;;;1.88;0.70;;;10.00;99.90;;;;;;5050903;28;20388;-84
2022/04/12 11:57:42;;;;;;;3.13;0.80;;;10.00;99.90;;;;;;5071248;28;20433;-84
2022/04/12 12:00:10;;;;;;;2.88;0.60;;;10.20;99.90;;;;;;5052758;28;20382;-85
2022/04/12 12:02:39;;;;;;;2.08;0.68;;;10.30;99.90;;;;;;5050662;28;20897;-85
2022/04/12 12:05:12;;;;;;;2.22;0.75;;;10.40;99.90;;;;;;5050172;28;20487;-84
2022/04/12 12:07:40;;;;;;;2.10;0.60;;;10.30;99.90;;;;;;5051673;28;20877;-84
2022/04/12 12:10:15;;;;;;;1.60;0.60;;;10.30;99.90;;;;;;5036181;28;20413;-85
2022/04/12 12:12:47;;;;;;;2.05;0.60;;;10.30;99.90;;;;;;5053153;28;20408;-84
2022/04/12 12:15:28;;;;;;;1.58;0.63;;;10.50;99.90;;;;;;5040518;28;20436;-84
2022/04/12 12:17:58;;;;;;;1.50;0.57;;;10.50;99.90;;;;;;5075513;28;20386;-85
2022/04/12 12:20:28;;;;;;;1.40;0.60;;;10.60;99.90;;;;;;5057727;28;20473;-84
2022/04/12 12:23:00;;;;;;;1.07;0.50;;;10.40;99.90;;;;;;5057318;28;20398;-85
2022/04/12 12:25:46;;;;;;;1.80;0.65;;;10.40;99.90;;;;;;5041238;28;20386;-84
2022/04/12 12:28:16;;;;;;;2.17;0.70;;;10.20;99.90;;;;;;5075392;28;20382;-84
2022/04/12 12:30:46;;;;;;;2.00;0.70;;;10.60;99.90;;;;;;5074735;28;20456;-84
2022/04/12 12:33:15;;;;;;;2.10;0.70;;;10.80;99.90;;;;;;5075092;28;20432;-85
2022/04/12 12:35:47;;;;;;;2.00;0.90;;;10.80;99.90;;;;;;5057345;28;20763;-84
2022/04/12 12:38:17;;;;;;;2.03;0.70;;;10.70;99.90;;;;;;5073713;28;20394;-84
2022/04/12 12:40:45;;;;;;;1.00;0.60;;;10.90;99.90;;;;;;5056729;28;20436;-83
2022/04/12 12:43:14;;;;;;;1.30;0.60;;;10.80;99.90;;;;;;5074921;28;20960;-84
2022/04/12 12:45:45;;;;;;;1.70;0.90;;;10.90;99.90;;;;;;5044855;28;20398;-84
2022/04/12 12:48:18;;;;;;;1.67;0.70;;;10.90;99.90;;;;;;5037188;28;20431;-84
2022/04/12 12:50:46;;;;;;;2.53;0.75;;;10.90;99.90;;;;;;5037204;28;20444;-83
2022/04/12 12:53:15;;;;;;;1.63;0.60;;;11.20;99.90;;;;;;5054739;28;20383;-84
2022/04/12 12:55:49;;;;;;;1.52;0.80;;;11.00;99.90;;;;;;5054588;28;20496;-83
2022/04/12 12:58:19;;;;;;;1.57;0.70;;;11.00;99.90;;;;;;5054669;28;20494;-83
2022/04/12 13:00:47;;;;;;;1.10;0.50;;;11.10;99.90;;;;;;5048917;28;20392;-83
2022/04/12 13:03:17;;;;;;;1.77;0.75;;;11.00;99.90;;;;;;5050852;28;20905;-83
2022/04/12 13:05:56;;;;;;;2.20;0.68;;;11.00;99.90;;;;;;5054058;28;20471;-82
2022/04/12 13:08:28;;;;;;;1.52;0.60;;;10.90;99.90;;;;;;5020240;28;20392;-83